Port Elizabeth, South Africa
Current Conditions -  °F | °C
As of 9:00 PM on Friday 28 Nov 2014 (Local Time) from FAPE Reporting Station
Clear Clear  
Wind Chill: 63°   Ceiling: Unl
Heat Index: 63°   Visibility: 6mi
Dew Point: 57°   Wind: 6mph
Humidity: 82%   Direction: 280°W
Pressure: 30.12"   Gusts: NA
Location:  33.96°S, 25.59°E
Report Text: FAPE 281900Z 28005KT CAVOK 17/14 Q1020 NOSIG
Loading
Personal Weather Stations






























Interactive Weather Map New forecast layout! Learn more

10-Day Weather Forecast

Advertisements
Track Severe Weather on mobile